createdAt,value
2019-04-30T00:01:16.993Z,7.30
2019-04-30T00:03:41.189Z,7.30
2019-04-30T00:06:09.935Z,7.30
2019-04-30T00:08:39.297Z,7.30
2019-04-30T00:11:10.786Z,7.30
2019-04-30T00:13:38.525Z,7.30
2019-04-30T00:16:07.267Z,7.30
2019-04-30T00:18:39.514Z,7.30
2019-04-30T00:21:09.934Z,7.30
2019-04-30T00:23:36.838Z,7.20
2019-04-30T00:26:10.334Z,7.20
2019-04-30T00:28:39.381Z,7.20
2019-04-30T00:31:06.512Z,7.30
2019-04-30T00:33:35.472Z,7.20
2019-04-30T00:36:04.977Z,7.20
2019-04-30T00:38:37.665Z,7.20
2019-04-30T00:41:06.753Z,7.20
2019-04-30T00:43:37.603Z,7.30
2019-04-30T00:46:05.689Z,7.30
2019-04-30T00:48:35.708Z,7.30
2019-04-30T00:51:07.479Z,7.20
2019-04-30T00:53:35.928Z,7.20
2019-04-30T00:56:05.701Z,7.20
2019-04-30T00:58:35.695Z,7.20
2019-04-30T01:01:17.463Z,7.20
2019-04-30T01:03:56.749Z,7.30
2019-04-30T01:06:28.637Z,7.30
2019-04-30T01:08:58.315Z,7.30
2019-04-30T01:11:26.329Z,7.30
2019-04-30T01:13:55.076Z,7.30
2019-04-30T01:16:30.118Z,7.30
2019-04-30T01:18:54.377Z,7.20
2019-04-30T01:21:23.244Z,7.30
2019-04-30T01:23:54.773Z,7.30
2019-04-30T01:26:27.761Z,7.20
2019-04-30T01:29:00.571Z,7.30
2019-04-30T01:31:25.668Z,7.30
2019-04-30T01:33:54.482Z,7.20
2019-04-30T01:36:23.254Z,7.30
2019-04-30T01:38:52.535Z,7.30
2019-04-30T01:41:27.562Z,7.40
2019-04-30T01:43:51.835Z,7.20
2019-04-30T01:46:20.968Z,7.30
2019-04-30T01:48:51.958Z,7.20
2019-04-30T01:51:21.806Z,7.20
2019-04-30T01:53:50.820Z,7.20
2019-04-30T01:56:28.875Z,7.20
2019-04-30T01:58:59.572Z,7.20
2019-04-30T02:01:31.196Z,7.20
2019-04-30T02:04:00.094Z,7.20
2019-04-30T02:06:29.465Z,7.30
2019-04-30T02:08:59.369Z,7.30
2019-04-30T02:11:28.863Z,7.20
2019-04-30T02:13:59.082Z,7.30
2019-04-30T02:16:29.035Z,7.20
2019-04-30T02:18:59.692Z,7.30
2019-04-30T02:21:30.333Z,7.30
2019-04-30T02:23:59.001Z,7.30
2019-04-30T02:26:28.656Z,7.30
2019-04-30T02:28:59.330Z,7.30
2019-04-30T02:31:30.752Z,7.30
2019-04-30T02:34:00.427Z,7.30
2019-04-30T02:36:40.050Z,7.40
2019-04-30T02:39:10.838Z,7.30
2019-04-30T02:41:41.244Z,7.20
2019-04-30T02:44:11.215Z,7.20
2019-04-30T02:46:41.754Z,7.20
2019-04-30T02:49:11.824Z,7.20
2019-04-30T02:51:42.505Z,7.20
2019-04-30T02:54:14.213Z,7.30
2019-04-30T02:56:44.594Z,7.30
2019-04-30T02:59:13.360Z,7.30
2019-04-30T03:01:42.173Z,7.30
2019-04-30T03:04:10.932Z,7.40
2019-04-30T03:06:40.323Z,7.30
2019-04-30T03:09:10.283Z,7.40
2019-04-30T03:11:40.582Z,7.30
2019-04-30T03:14:10.561Z,7.30
2019-04-30T03:16:41.720Z,7.30
2019-04-30T03:19:12.111Z,7.40
2019-04-30T03:21:42.521Z,7.40
2019-04-30T03:24:11.565Z,7.40
2019-04-30T03:26:40.588Z,7.40
2019-04-30T03:29:11.225Z,7.40
2019-04-30T03:31:44.037Z,7.30
2019-04-30T03:34:16.589Z,7.30
2019-04-30T03:36:40.835Z,7.30
2019-04-30T03:39:10.804Z,7.30
2019-04-30T03:41:41.389Z,7.30
2019-04-30T03:44:20.953Z,7.30
2019-04-30T03:46:40.952Z,7.40
2019-04-30T03:49:12.516Z,7.30
2019-04-30T03:51:40.528Z,7.30
2019-04-30T03:54:10.383Z,7.40
2019-04-30T03:56:40.493Z,7.50
2019-04-30T03:59:10.655Z,7.40
2019-04-30T04:01:49.734Z,7.30
2019-04-30T04:04:20.200Z,7.40
2019-04-30T04:06:53.631Z,7.40
2019-04-30T04:09:40.105Z,7.40
2019-04-30T04:12:21.035Z,7.40
2019-04-30T04:14:51.001Z,7.40
2019-04-30T04:17:20.704Z,7.30
2019-04-30T04:19:52.879Z,7.40
2019-04-30T04:22:22.281Z,7.40
2019-04-30T04:24:52.235Z,7.40
2019-04-30T04:27:20.961Z,7.40
2019-04-30T04:29:51.140Z,7.40
2019-04-30T04:32:23.959Z,7.40
2019-04-30T04:34:50.923Z,7.40
2019-04-30T04:37:20.337Z,7.50
2019-04-30T04:39:50.170Z,7.60
2019-04-30T04:42:20.557Z,7.60
2019-04-30T04:44:50.129Z,7.60
2019-04-30T04:47:20.235Z,7.60
2019-04-30T04:49:53.287Z,7.60
2019-04-30T04:52:21.474Z,7.50
2019-04-30T04:54:50.859Z,7.50
2019-04-30T04:57:22.705Z,7.50
2019-04-30T04:59:50.365Z,7.40
2019-04-30T05:02:39.509Z,7.50
2019-04-30T05:05:09.629Z,7.50
2019-04-30T05:07:39.950Z,7.40
2019-04-30T05:10:09.534Z,7.40
2019-04-30T05:12:39.791Z,7.40
2019-04-30T05:15:09.676Z,7.40
2019-04-30T05:17:39.720Z,7.50
2019-04-30T05:20:10.066Z,7.50
2019-04-30T05:22:39.119Z,7.60
2019-04-30T05:25:09.050Z,7.50
2019-04-30T05:27:39.225Z,7.60
2019-04-30T05:30:11.775Z,7.50
2019-04-30T05:32:39.454Z,7.50
2019-04-30T05:35:09.571Z,7.60
2019-04-30T05:37:38.600Z,7.60
2019-04-30T05:40:09.145Z,7.60
2019-04-30T05:42:38.736Z,7.60
2019-04-30T05:45:09.313Z,7.50
2019-04-30T05:47:38.854Z,7.60
2019-04-30T05:50:09.004Z,7.60
2019-04-30T05:52:39.817Z,7.60
2019-04-30T05:55:08.718Z,7.60
2019-04-30T05:57:40.809Z,7.60
2019-04-30T06:00:10.019Z,7.60
2019-04-30T06:02:40.000Z,7.70
2019-04-30T06:05:09.607Z,7.60
2019-04-30T06:07:39.447Z,7.70
2019-04-30T06:10:10.544Z,7.80
2019-04-30T06:12:59.479Z,7.80
2019-04-30T06:15:30.038Z,7.80
2019-04-30T06:18:02.875Z,7.80
2019-04-30T06:20:29.193Z,7.80
2019-04-30T06:22:59.693Z,7.70
2019-04-30T06:25:41.104Z,7.70
2019-04-30T06:27:59.753Z,7.70
2019-04-30T06:30:29.726Z,7.70
2019-04-30T06:32:59.608Z,7.70
2019-04-30T06:35:29.365Z,7.70
2019-04-30T06:37:59.103Z,7.70
2019-04-30T06:40:29.286Z,7.70
2019-04-30T06:43:00.724Z,7.70
2019-04-30T06:45:31.189Z,7.60
2019-04-30T06:48:02.602Z,7.70
2019-04-30T06:50:31.565Z,7.80
2019-04-30T06:53:01.693Z,7.80
2019-04-30T06:55:30.980Z,7.80
2019-04-30T06:58:11.487Z,7.80
2019-04-30T07:00:40.164Z,7.80
2019-04-30T07:03:09.643Z,7.80
2019-04-30T07:05:39.110Z,7.80
2019-04-30T07:08:36.341Z,7.80
2019-04-30T07:11:14.720Z,7.80
2019-04-30T07:13:45.565Z,7.80
2019-04-30T07:16:14.577Z,7.80
2019-04-30T07:18:43.416Z,7.80
2019-04-30T07:21:12.153Z,7.80
2019-04-30T07:23:40.920Z,7.90
2019-04-30T07:26:13.740Z,7.90
2019-04-30T07:28:46.559Z,7.90
2019-04-30T07:31:14.362Z,8.00
2019-04-30T07:33:40.977Z,7.90
2019-04-30T07:36:09.870Z,8.00
2019-04-30T07:38:45.727Z,7.90
2019-04-30T07:41:09.624Z,8.00
2019-04-30T07:43:39.234Z,8.00
2019-04-30T07:46:09.312Z,8.10
2019-04-30T07:48:40.254Z,8.10
2019-04-30T07:51:10.314Z,8.20
2019-04-30T07:53:40.454Z,8.20
2019-04-30T07:56:24.272Z,8.20
2019-04-30T07:58:39.802Z,8.20
2019-04-30T08:01:10.300Z,8.30
2019-04-30T08:03:58.982Z,8.30
2019-04-30T08:09:00.846Z,8.20
2019-04-30T08:09:35.580Z,8.20
2019-04-30T08:11:29.467Z,8.30
2019-04-30T08:13:58.928Z,8.30
2019-04-30T08:16:28.748Z,8.30
2019-04-30T08:18:59.203Z,8.40
2019-04-30T08:21:28.825Z,8.40
2019-04-30T08:24:00.722Z,8.50
2019-04-30T08:26:28.699Z,8.40
2019-04-30T08:28:59.796Z,8.40
2019-04-30T08:31:29.210Z,8.40
2019-04-30T08:33:59.128Z,8.50
2019-04-30T08:36:29.773Z,8.50
2019-04-30T08:38:59.658Z,8.70
2019-04-30T08:41:29.398Z,8.70
2019-04-30T08:43:59.785Z,8.60
2019-04-30T08:46:28.758Z,8.60
2019-04-30T08:48:58.763Z,8.60
2019-04-30T08:51:30.519Z,8.70
2019-04-30T08:53:58.718Z,8.70
2019-04-30T08:56:29.626Z,8.70
2019-04-30T08:58:59.412Z,8.70
2019-04-30T09:01:29.414Z,8.60
2019-04-30T09:03:59.658Z,8.70
2019-04-30T09:06:29.857Z,8.70
2019-04-30T09:08:59.391Z,8.70
2019-04-30T09:11:34.106Z,8.70
2019-04-30T09:13:58.740Z,8.70
2019-04-30T09:16:29.313Z,8.60
2019-04-30T09:18:59.487Z,8.70
2019-04-30T09:21:29.982Z,8.60
2019-04-30T09:23:59.430Z,8.70
2019-04-30T09:26:29.075Z,8.70
2019-04-30T09:28:59.290Z,8.80
2019-04-30T09:31:29.589Z,8.80
2019-04-30T09:34:00.761Z,8.90
2019-04-30T09:36:29.351Z,9.00
2019-04-30T09:39:01.002Z,9.00
2019-04-30T09:41:28.860Z,9.00
2019-04-30T09:43:59.648Z,9.20
2019-04-30T09:46:29.980Z,9.20
2019-04-30T09:48:59.767Z,9.40
2019-04-30T09:51:30.457Z,9.60
2019-04-30T09:54:02.319Z,9.90
2019-04-30T09:56:29.574Z,10.20
2019-04-30T09:58:59.246Z,10.60
2019-04-30T10:01:28.161Z,10.90
2019-04-30T10:03:57.349Z,11.10
2019-04-30T10:06:39.030Z,11.30
2019-04-30T10:08:59.501Z,11.30
2019-04-30T10:11:35.528Z,11.40
2019-04-30T10:14:04.532Z,11.70
2019-04-30T10:16:50.053Z,12.00
2019-04-30T10:19:19.204Z,12.00
2019-04-30T10:21:48.999Z,11.90
2019-04-30T10:24:19.623Z,12.20
2019-04-30T10:26:48.417Z,12.20
2019-04-30T10:29:17.961Z,12.20
2019-04-30T10:31:48.850Z,12.70
2019-04-30T10:34:17.285Z,13.10
2019-04-30T10:36:46.220Z,13.40
2019-04-30T10:39:14.981Z,13.00
2019-04-30T10:41:43.733Z,12.90
2019-04-30T10:44:12.470Z,13.00
2019-04-30T10:46:41.237Z,13.20
2019-04-30T10:49:10.054Z,13.20
2019-04-30T10:51:38.935Z,13.60
2019-04-30T10:54:08.853Z,13.60
2019-04-30T10:56:37.718Z,13.30
2019-04-30T10:59:06.452Z,13.20
2019-04-30T11:01:35.188Z,13.40
2019-04-30T11:04:06.357Z,13.50
2019-04-30T11:06:35.292Z,13.90
2019-04-30T11:09:05.728Z,14.30
2019-04-30T11:11:34.547Z,14.50
2019-04-30T11:14:03.308Z,14.10
2019-04-30T11:16:32.044Z,13.70
2019-04-30T11:19:00.851Z,13.50
2019-04-30T11:21:29.704Z,13.60
2019-04-30T11:23:59.512Z,13.30
2019-04-30T11:26:31.106Z,12.90
2019-04-30T11:28:59.008Z,12.80
2019-04-30T11:31:29.617Z,12.80
2019-04-30T11:34:00.199Z,13.00
2019-04-30T11:36:29.274Z,13.70
2019-04-30T11:38:58.622Z,14.10
2019-04-30T11:41:30.904Z,13.90
2019-04-30T11:43:59.473Z,13.50
2019-04-30T11:46:49.478Z,13.30
2019-04-30T11:49:18.346Z,13.20
2019-04-30T11:51:47.089Z,13.10
2019-04-30T11:54:15.825Z,12.90
2019-04-30T11:56:44.596Z,12.90
2019-04-30T11:59:13.409Z,12.70
2019-04-30T12:01:42.549Z,12.60
2019-04-30T12:04:11.297Z,12.70
2019-04-30T12:06:40.133Z,13.00
2019-04-30T12:09:14.758Z,13.30
2019-04-30T12:11:45.281Z,13.70
2019-04-30T12:14:14.026Z,14.00
2019-04-30T12:16:42.872Z,14.10
2019-04-30T12:19:11.620Z,13.70
2019-04-30T12:21:40.689Z,13.70
2019-04-30T12:24:09.429Z,13.60
2019-04-30T12:26:38.888Z,13.90
2019-04-30T12:29:08.968Z,14.20
2019-04-30T12:31:38.337Z,14.20
2019-04-30T12:34:07.070Z,13.80
2019-04-30T12:36:35.836Z,13.50
2019-04-30T12:39:06.094Z,13.30
2019-04-30T12:41:34.857Z,13.40
2019-04-30T12:44:03.592Z,13.70
2019-04-30T12:46:32.435Z,14.30
2019-04-30T12:49:05.520Z,14.60
2019-04-30T12:51:45.636Z,14.20
2019-04-30T12:54:10.813Z,14.20
2019-04-30T12:56:43.900Z,14.00
2019-04-30T12:59:12.710Z,13.70
2019-04-30T13:01:41.752Z,13.70
2019-04-30T13:04:10.490Z,13.60
2019-04-30T13:06:39.670Z,13.60
2019-04-30T13:09:10.780Z,13.40
2019-04-30T13:11:40.869Z,13.70
2019-04-30T13:14:11.121Z,14.00
2019-04-30T13:16:40.413Z,14.10
2019-04-30T13:19:09.365Z,14.30
2019-04-30T13:21:39.546Z,14.90
2019-04-30T13:24:08.379Z,15.10
2019-04-30T13:26:37.152Z,14.80
2019-04-30T13:29:07.596Z,14.50
2019-04-30T13:31:36.433Z,14.60
2019-04-30T13:34:23.521Z,14.70
2019-04-30T13:36:52.369Z,14.60
2019-04-30T13:39:22.781Z,14.30
2019-04-30T13:42:15.845Z,14.30
2019-04-30T13:44:40.286Z,14.70
2019-04-30T13:47:10.823Z,14.80
2019-04-30T13:49:42.253Z,15.10
2019-04-30T13:52:11.024Z,15.10
2019-04-30T13:54:39.796Z,15.00
2019-04-30T13:57:09.813Z,14.60
2019-04-30T13:59:38.719Z,14.20
2019-04-30T14:02:08.771Z,14.00
2019-04-30T14:04:55.668Z,13.70
2019-04-30T14:07:26.089Z,13.80
2019-04-30T14:09:54.934Z,14.10
2019-04-30T14:12:23.664Z,14.40
2019-04-30T14:14:52.505Z,14.70
2019-04-30T14:19:54.555Z,14.90
2019-04-30T14:22:23.362Z,15.00
2019-04-30T14:24:52.190Z,14.80
2019-04-30T14:27:20.929Z,14.50
2019-04-30T14:29:49.696Z,14.40
2019-04-30T14:32:18.653Z,14.40
2019-04-30T14:34:50.440Z,14.20
2019-04-30T14:37:17.876Z,13.90
2019-04-30T14:39:46.646Z,13.80
2019-04-30T14:42:16.093Z,13.60
2019-04-30T14:44:46.238Z,13.40
2019-04-30T14:47:30.962Z,13.50
2019-04-30T14:50:04.812Z,13.50
2019-04-30T14:52:32.721Z,13.60
2019-04-30T14:55:18.793Z,13.80
2019-04-30T14:57:52.305Z,13.80
2019-04-30T15:00:32.066Z,14.00
2019-04-30T15:03:09.471Z,14.00
2019-04-30T15:05:43.549Z,14.00
2019-04-30T15:08:08.791Z,14.00
2019-04-30T15:10:37.919Z,14.00
2019-04-30T15:13:21.567Z,14.00
2019-04-30T15:15:49.412Z,14.00
2019-04-30T15:18:19.175Z,14.10
2019-04-30T15:20:49.762Z,14.20
2019-04-30T15:23:36.292Z,14.30
2019-04-30T15:26:05.113Z,14.30
2019-04-30T15:31:08.463Z,14.30
2019-04-30T15:33:38.644Z,14.30
2019-04-30T15:36:09.630Z,14.30
2019-04-30T15:38:55.602Z,14.40
2019-04-30T15:41:24.440Z,14.40
2019-04-30T15:43:53.244Z,14.50
2019-04-30T15:46:22.089Z,14.60
2019-04-30T15:48:50.821Z,14.70
2019-04-30T15:51:19.585Z,15.00
2019-04-30T15:53:48.323Z,15.20
2019-04-30T15:56:19.159Z,15.10
2019-04-30T15:59:05.497Z,15.10
2019-04-30T16:01:34.290Z,14.90
2019-04-30T16:04:03.492Z,14.50
2019-04-30T16:06:32.261Z,14.30
2019-04-30T16:09:02.634Z,14.20
2019-04-30T16:11:33.051Z,14.00
2019-04-30T16:14:09.240Z,13.80
2019-04-30T16:16:39.657Z,13.80
2019-04-30T16:19:09.130Z,13.70
2019-04-30T16:21:38.037Z,13.60
2019-04-30T16:24:08.600Z,13.50
2019-04-30T16:26:47.256Z,13.40
2019-04-30T16:29:09.831Z,13.20
2019-04-30T16:31:39.140Z,13.00
2019-04-30T16:34:08.035Z,12.90
2019-04-30T16:36:36.773Z,12.90
2019-04-30T16:39:08.757Z,12.90
2019-04-30T16:41:40.555Z,12.80
2019-04-30T16:44:09.221Z,12.70
2019-04-30T16:46:39.493Z,12.80
2019-04-30T16:49:10.193Z,12.70
2019-04-30T16:51:40.897Z,12.70
2019-04-30T16:54:09.668Z,12.70
2019-04-30T16:56:38.794Z,12.70
2019-04-30T16:59:15.293Z,12.60
2019-04-30T17:01:56.626Z,12.60
2019-04-30T17:04:19.258Z,12.50
2019-04-30T17:06:52.632Z,12.60
2019-04-30T17:09:25.776Z,12.60
2019-04-30T17:12:12.689Z,12.50
2019-04-30T17:14:45.037Z,12.50
2019-04-30T17:17:13.850Z,12.50
2019-04-30T17:19:42.685Z,12.40
2019-04-30T17:22:11.466Z,12.30
2019-04-30T17:24:40.309Z,12.30
2019-04-30T17:27:18.658Z,12.30
2019-04-30T17:29:39.620Z,12.30
2019-04-30T17:32:08.760Z,12.30
2019-04-30T17:34:38.979Z,12.30
2019-04-30T17:37:09.135Z,12.20
2019-04-30T17:39:40.892Z,12.10
2019-04-30T17:42:09.758Z,12.00
2019-04-30T17:44:39.741Z,12.00
2019-04-30T17:47:09.154Z,12.00
2019-04-30T17:49:37.872Z,11.90
2019-04-30T17:52:08.718Z,11.80
2019-04-30T17:54:37.456Z,11.70
2019-04-30T17:57:06.352Z,11.80
2019-04-30T17:59:36.847Z,11.70
2019-04-30T18:02:09.545Z,11.60
2019-04-30T18:04:38.238Z,11.40
2019-04-30T18:07:07.000Z,11.40
2019-04-30T18:09:35.742Z,11.30
2019-04-30T18:12:04.785Z,11.20
2019-04-30T18:14:35.153Z,11.10
2019-04-30T18:17:04.021Z,11.00
2019-04-30T18:19:50.136Z,10.90
2019-04-30T18:22:29.283Z,10.70
2019-04-30T18:25:15.684Z,10.70
2019-04-30T18:27:52.161Z,10.50
2019-04-30T18:30:22.537Z,10.50
2019-04-30T18:32:51.441Z,10.40
2019-04-30T18:35:20.346Z,10.30
2019-04-30T18:37:49.276Z,10.20
2019-04-30T18:40:18.669Z,10.20
2019-04-30T18:42:49.522Z,10.20
2019-04-30T18:45:19.443Z,10.10
2019-04-30T18:47:48.440Z,10.10
2019-04-30T18:50:17.411Z,10.10
2019-04-30T18:52:48.709Z,10.10
2019-04-30T18:55:19.178Z,10.10
2019-04-30T18:57:56.430Z,10.10
2019-04-30T19:00:20.176Z,10.10
2019-04-30T19:02:49.060Z,10.10
2019-04-30T19:05:19.456Z,10.10
2019-04-30T19:07:52.823Z,10.20
2019-04-30T19:10:26.080Z,10.10
2019-04-30T19:12:56.444Z,10.20
2019-04-30T19:16:11.431Z,10.20
2019-04-30T19:18:11.313Z,10.10
2019-04-30T19:20:41.729Z,10.20
2019-04-30T19:23:10.624Z,10.20
2019-04-30T19:25:39.593Z,10.30
2019-04-30T19:28:12.089Z,10.40
2019-04-30T19:30:39.070Z,10.40
2019-04-30T19:33:08.702Z,10.30
2019-04-30T19:35:37.716Z,10.40
2019-04-30T19:38:06.503Z,10.40
2019-04-30T19:40:35.357Z,10.40
2019-04-30T19:43:04.117Z,10.50
2019-04-30T19:45:32.952Z,10.50
2019-04-30T19:48:01.785Z,10.50
2019-04-30T19:50:30.557Z,10.50
2019-04-30T19:52:59.297Z,10.40
2019-04-30T19:55:28.571Z,10.50
2019-04-30T19:57:59.701Z,10.50
2019-04-30T20:00:29.110Z,10.60
2019-04-30T20:02:59.973Z,10.70
2019-04-30T20:05:28.970Z,10.60
2019-04-30T20:07:59.183Z,10.60
2019-04-30T20:10:28.772Z,10.60
2019-04-30T20:12:58.778Z,10.50
2019-04-30T20:15:29.657Z,10.50
2019-04-30T20:17:58.709Z,10.60
2019-04-30T20:20:28.838Z,10.50
2019-04-30T20:24:29.318Z,10.60
2019-04-30T20:27:06.384Z,10.60
2019-04-30T20:29:28.817Z,10.50
2019-04-30T20:31:58.986Z,10.60
2019-04-30T20:34:29.274Z,10.70
2019-04-30T20:37:00.177Z,10.60
2019-04-30T20:39:33.020Z,10.60
2019-04-30T20:42:01.789Z,10.70
2019-04-30T20:44:30.597Z,10.60
2019-04-30T20:46:59.438Z,10.60
2019-04-30T20:49:29.114Z,10.60
2019-04-30T20:51:58.977Z,10.50
2019-04-30T20:54:29.089Z,10.60
2019-04-30T20:56:58.953Z,10.50
2019-04-30T20:59:28.993Z,10.50
2019-04-30T21:01:58.036Z,10.50
2019-04-30T21:04:26.887Z,10.50
2019-04-30T21:06:55.693Z,10.50
2019-04-30T21:09:24.530Z,10.60
2019-04-30T21:11:53.344Z,10.50
2019-04-30T21:14:22.108Z,10.50
2019-04-30T21:16:50.878Z,10.40
2019-04-30T21:19:19.627Z,10.40
2019-04-30T21:21:49.739Z,10.40
2019-04-30T21:24:18.647Z,10.40
2019-04-30T21:26:47.493Z,10.40
2019-04-30T21:29:16.284Z,10.30
2019-04-30T21:31:58.393Z,10.40
2019-04-30T21:34:34.557Z,10.40
2019-04-30T21:37:03.339Z,10.40
2019-04-30T21:39:32.169Z,10.30
2019-04-30T21:42:00.977Z,10.40
2019-04-30T21:44:29.745Z,10.30
2019-04-30T21:46:58.553Z,10.40
2019-04-30T21:49:27.341Z,10.40
2019-04-30T21:51:56.093Z,10.30
2019-04-30T21:54:24.871Z,10.20
2019-04-30T21:56:53.608Z,10.30
2019-04-30T21:59:24.490Z,10.30
2019-04-30T22:01:52.936Z,10.30
2019-04-30T22:04:21.776Z,10.20
2019-04-30T22:06:50.689Z,10.20
2019-04-30T22:09:19.895Z,10.20
2019-04-30T22:11:49.422Z,10.30
2019-04-30T22:14:18.186Z,10.20
2019-04-30T22:16:47.044Z,10.10
2019-04-30T22:19:15.778Z,10.00
2019-04-30T22:21:44.547Z,10.00
2019-04-30T22:24:13.312Z,10.10
2019-04-30T22:26:42.092Z,10.20
2019-04-30T22:29:10.952Z,10.10
2019-04-30T22:31:39.784Z,10.10
2019-04-30T22:34:08.886Z,10.00
2019-04-30T22:36:39.305Z,9.90
2019-04-30T22:39:12.478Z,9.90
2019-04-30T22:41:41.248Z,10.00
2019-04-30T22:44:10.131Z,10.00
2019-04-30T22:46:39.442Z,9.80
2019-04-30T22:49:08.897Z,9.80
2019-04-30T22:51:37.665Z,9.70
2019-04-30T22:54:06.396Z,9.60
2019-04-30T22:56:35.220Z,9.40
2019-04-30T22:59:03.956Z,9.20
2019-04-30T23:01:34.371Z,9.20
2019-04-30T23:04:04.754Z,9.10
2019-04-30T23:06:33.555Z,9.00
2019-04-30T23:09:02.292Z,9.00
2019-04-30T23:11:31.065Z,8.80
2019-04-30T23:14:00.069Z,8.70
2019-04-30T23:16:28.832Z,8.70
2019-04-30T23:18:57.569Z,8.60
2019-04-30T23:21:26.357Z,8.60
2019-04-30T23:23:55.092Z,8.50
2019-04-30T23:26:23.957Z,8.40
2019-04-30T23:28:52.692Z,8.30
2019-04-30T23:31:21.430Z,8.30
2019-04-30T23:33:50.194Z,8.20
2019-04-30T23:36:18.969Z,8.20
2019-04-30T23:38:47.742Z,8.20
2019-04-30T23:41:16.545Z,8.20
2019-04-30T23:43:45.309Z,8.10
2019-04-30T23:46:14.041Z,8.10
2019-04-30T23:48:42.801Z,7.90
2019-04-30T23:51:11.542Z,7.90
2019-04-30T23:53:40.417Z,7.80
2019-04-30T23:56:09.148Z,7.80
2019-04-30T23:58:37.917Z,7.70
